Time,TemperatureF,DewpointF,PressureIn,WindDirection,WindDirectionDegrees,WindSpeedMPH,WindSpeedGustMPH,Humidity,HourlyPrecipIn,Conditions,Clouds,dailyrainin,SoftwareType,DateUTC
2013-06-02 00:00:00,78.1,69.5,29.82,SSE,154,3.0,5.0,75,0.00,SCT,,0.00,WeatherDisplay:10.37,2013-06-02 04:00:00,
2013-06-02 00:10:00,78.0,69.4,29.81,South,171,3.0,8.0,75,0.00,SCT,,0.00,WeatherDisplay:10.37,2013-06-02 04:10:00,
2013-06-02 00:30:00,77.5,69.3,29.81,South,172,3.0,6.0,76,0.00,SCT,,0.00,WeatherDisplay:10.37,2013-06-02 04:30:00,
2013-06-02 00:40:00,77.4,69.2,29.81,SSE,168,7.0,9.0,76,0.00,SCT,,0.00,WeatherDisplay:10.37,2013-06-02 04:40:00,
2013-06-02 00:50:00,77.2,69.0,29.81,South,169,1.0,7.0,76,0.00,SCT,,0.00,WeatherDisplay:10.37,2013-06-02 04:50:00,
2013-06-02 01:00:00,77.0,69.2,29.80,South,173,1.0,8.0,77,0.00,SCT,,0.00,WeatherDisplay:10.37,2013-06-02 05:00:00,
2013-06-02 01:10:00,76.7,68.9,29.80,South,175,6.0,8.0,77,0.00,SCT,,0.00,WeatherDisplay:10.37,2013-06-02 05:10:00,
2013-06-02 01:20:00,76.7,69.0,29.80,SSE,161,6.0,9.0,77,0.00,SCT,,0.00,WeatherDisplay:10.37,2013-06-02 05:20:00,
2013-06-02 01:30:00,76.7,68.9,29.80,SSE,157,6.0,8.0,77,0.00,SCT,,0.00,WeatherDisplay:10.37,2013-06-02 05:30:00,
2013-06-02 01:40:00,76.5,68.8,29.79,South,172,1.0,8.0,77,0.00,SCT,,0.00,WeatherDisplay:10.37,2013-06-02 05:40:00,
2013-06-02 01:50:00,76.5,68.7,29.79,South,172,3.0,9.0,77,0.00,SCT,,0.00,WeatherDisplay:10.37,2013-06-02 05:50:00,
2013-06-02 02:00:00,76.4,68.7,29.79,South,174,3.0,12.0,77,0.00,SCT,,0.00,WeatherDisplay:10.37,2013-06-02 06:00:00,
2013-06-02 02:10:00,76.2,68.5,29.79,South,174,3.0,9.0,77,0.00,FEW,,0.00,WeatherDisplay:10.37,2013-06-02 06:10:00,
2013-06-02 02:20:00,75.9,68.2,29.79,South,171,1.0,5.0,77,0.00,FEW,,0.00,WeatherDisplay:10.37,2013-06-02 06:20:00,
2013-06-02 02:30:00,75.8,68.1,29.79,SSE,165,3.0,6.0,77,0.00,FEW,,0.00,WeatherDisplay:10.37,2013-06-02 06:30:00,
2013-06-02 02:40:00,75.7,68.0,29.78,SSE,153,3.0,5.0,77,0.00,FEW,,0.00,WeatherDisplay:10.37,2013-06-02 06:40:00,
2013-06-02 02:50:00,75.5,68.2,29.79,South,175,1.0,10.0,78,0.00,FEW,,0.00,WeatherDisplay:10.37,2013-06-02 06:50:00,
2013-06-02 03:00:00,75.3,68.0,29.78,South,173,3.0,6.0,78,0.00,FEW,,0.00,WeatherDisplay:10.37,2013-06-02 07:00:00,
2013-06-02 03:10:00,75.2,67.9,29.78,South,169,2.0,6.0,78,0.00,FEW,,0.00,WeatherDisplay:10.37,2013-06-02 07:10:00,
2013-06-02 03:20:00,75.1,67.8,29.78,SSE,155,2.0,6.0,78,0.00,FEW,,0.00,WeatherDisplay:10.37,2013-06-02 07:20:00,
2013-06-02 03:30:00,75.0,67.7,29.78,South,173,5.0,6.0,78,0.00,FEW,,0.00,WeatherDisplay:10.37,2013-06-02 07:30:00,
2013-06-02 03:40:00,74.9,67.6,29.78,SSE,165,1.0,5.0,78,0.00,FEW,,0.00,WeatherDisplay:10.37,2013-06-02 07:40:00,
2013-06-02 03:50:00,74.8,67.5,29.78,SSE,163,1.0,6.0,78,0.00,FEW,,0.00,WeatherDisplay:10.37,2013-06-02 07:50:00,
2013-06-02 04:00:00,74.7,67.4,29.78,SSE,149,3.0,9.0,78,0.00,FEW,,0.00,WeatherDisplay:10.37,2013-06-02 08:00:00,
2013-06-02 04:10:00,74.6,67.7,29.77,SSE,163,5.0,8.0,79,0.00,FEW,,0.00,WeatherDisplay:10.37,2013-06-02 08:10:00,
2013-06-02 04:20:00,74.6,67.7,29.77,SSE,161,3.0,8.0,79,0.00,FEW,,0.00,WeatherDisplay:10.37,2013-06-02 08:20:00,
2013-06-02 04:30:00,74.4,67.5,29.77,SSE,150,5.0,8.0,79,0.00,FEW,,0.00,WeatherDisplay:10.37,2013-06-02 08:30:00,
2013-06-02 04:40:00,74.4,67.5,29.77,SSE,164,2.0,8.0,79,0.00,FEW,,0.00,WeatherDisplay:10.37,2013-06-02 08:40:00,
2013-06-02 04:50:00,74.3,67.4,29.77,SSE,162,2.0,6.0,79,0.00,FEW,,0.00,WeatherDisplay:10.37,2013-06-02 08:50:00,
2013-06-02 05:00:00,74.1,67.2,29.77,South,173,2.0,5.0,79,0.00,FEW,,0.00,WeatherDisplay:10.37,2013-06-02 09:00:00,
2013-06-02 05:10:00,73.8,67.2,29.76,South,171,2.0,5.0,80,0.00,SCT,,0.00,WeatherDisplay:10.37,2013-06-02 09:10:00,
2013-06-02 05:20:00,73.5,67.0,29.76,SSE,157,2.0,3.0,80,0.00,SCT,,0.00,WeatherDisplay:10.37,2013-06-02 09:20:00,
2013-06-02 05:30:00,73.4,67.2,29.76,SSE,154,1.0,3.0,81,0.00,SCT,,0.00,WeatherDisplay:10.37,2013-06-02 09:30:00,
2013-06-02 05:40:00,73.4,67.2,29.76,SSE,158,2.0,5.0,81,0.00,SCT,,0.00,WeatherDisplay:10.37,2013-06-02 09:40:00,
2013-06-02 05:50:00,73.4,67.2,29.76,SSE,158,1.0,5.0,81,0.00,SCT,,0.00,WeatherDisplay:10.37,2013-06-02 09:50:00,
2013-06-02 06:00:00,73.5,67.3,29.77,SSE,159,0.0,5.0,81,0.00,SCT,,0.00,WeatherDisplay:10.37,2013-06-02 10:00:00,
2013-06-02 06:10:00,73.5,67.3,29.77,SSE,163,1.0,5.0,81,0.00,BKN,,0.00,WeatherDisplay:10.37,2013-06-02 10:10:00,
2013-06-02 06:20:00,73.6,67.4,29.77,South,178,3.0,5.0,81,0.00,BKN,,0.00,WeatherDisplay:10.37,2013-06-02 10:20:00,
2013-06-02 06:30:00,73.9,67.7,29.77,South,175,2.0,3.0,81,0.00,BKN,,0.00,WeatherDisplay:10.37,2013-06-02 10:30:00,
2013-06-02 06:40:00,74.5,67.9,29.77,SSE,154,5.0,8.0,80,0.00,BKN,,0.00,WeatherDisplay:10.37,2013-06-02 10:40:00,
2013-06-02 06:50:00,75.2,68.2,29.77,SSE,161,3.0,12.0,79,0.00,BKN,,0.00,WeatherDisplay:10.37,2013-06-02 10:50:00,
2013-06-02 07:00:00,75.1,68.1,29.77,SSE,158,3.0,12.0,79,0.00,BKN,,0.00,WeatherDisplay:10.37,2013-06-02 11:00:00,
2013-06-02 07:10:00,75.2,68.2,29.77,South,172,5.0,10.0,79,0.00,BKN,,0.00,WeatherDisplay:10.37,2013-06-02 11:10:00,
2013-06-02 07:20:00,75.3,68.3,29.77,SSE,156,7.0,14.0,79,0.00,BKN,,0.00,WeatherDisplay:10.37,2013-06-02 11:20:00,
2013-06-02 07:30:00,76.0,68.6,29.76,SSE,162,8.0,12.0,78,0.00,BKN,,0.00,WeatherDisplay:10.37,2013-06-02 11:30:00,
2013-06-02 07:40:00,76.5,69.2,29.76,SSE,166,8.0,12.0,78,0.00,BKN,,0.00,WeatherDisplay:10.37,2013-06-02 11:40:00,
2013-06-02 07:50:00,76.9,69.1,29.76,SSE,158,8.0,18.0,77,0.00,BKN,,0.00,WeatherDisplay:10.37,2013-06-02 11:50:00,
2013-06-02 08:00:00,76.6,69.2,29.75,SSE,166,5.0,8.0,78,0.00,BKN,,0.00,WeatherDisplay:10.37,2013-06-02 12:00:00,
2013-06-02 08:10:00,76.4,69.0,29.75,SSE,165,7.0,14.0,78,0.00,BKN,,0.00,WeatherDisplay:10.37,2013-06-02 12:10:00,
2013-06-02 08:20:00,76.4,69.0,29.75,SSE,156,3.0,9.0,78,0.00,BKN,,0.00,WeatherDisplay:10.37,2013-06-02 12:20:00,
2013-06-02 08:30:00,76.6,69.2,29.74,SSE,165,5.0,8.0,78,0.00,BKN,,0.00,WeatherDisplay:10.37,2013-06-02 12:30:00,
2013-06-02 08:40:00,77.0,69.6,29.74,South,171,6.0,8.0,78,0.00,BKN,,0.00,WeatherDisplay:10.37,2013-06-02 12:40:00,
2013-06-02 08:50:00,77.2,69.4,29.74,SSE,156,3.0,9.0,77,0.00,BKN,,0.00,WeatherDisplay:10.37,2013-06-02 12:50:00,
2013-06-02 09:00:00,77.2,69.4,29.74,SSE,164,1.0,10.0,77,0.00,BKN,,0.00,WeatherDisplay:10.37,2013-06-02 13:00:00,
2013-06-02 09:10:00,77.8,69.6,29.74,South,171,6.0,12.0,76,0.00,BKN,,0.00,WeatherDisplay:10.37,2013-06-02 13:10:00,
2013-06-02 09:20:00,78.0,69.8,29.74,South,169,7.0,14.0,76,0.00,BKN,,0.00,WeatherDisplay:10.37,2013-06-02 13:20:00,
2013-06-02 09:30:00,78.1,70.0,29.75,South,179,2.0,12.0,76,0.00,BKN,,0.00,WeatherDisplay:10.37,2013-06-02 13:30:00,
2013-06-02 09:40:00,79.6,70.6,29.74,SSW,196,7.0,12.0,74,0.00,BKN,,0.00,WeatherDisplay:10.37,2013-06-02 13:40:00,
2013-06-02 09:50:00,80.1,70.2,29.74,SSE,163,7.0,15.0,72,0.00,BKN,,0.00,WeatherDisplay:10.37,2013-06-02 13:50:00,
2013-06-02 10:00:00,80.2,70.4,29.74,SSE,166,6.0,14.0,72,0.00,BKN,,0.00,WeatherDisplay:10.37,2013-06-02 14:00:00,
2013-06-02 10:10:00,80.4,70.1,29.74,SSE,162,9.0,18.0,71,0.00,BKN,,0.00,WeatherDisplay:10.37,2013-06-02 14:10:00,
2013-06-02 10:20:00,80.7,70.4,29.74,SSE,162,7.0,15.0,71,0.00,BKN,,0.00,WeatherDisplay:10.37,2013-06-02 14:20:00,
2013-06-02 10:30:00,81.4,70.6,29.73,SSE,164,7.0,21.0,70,0.00,BKN,,0.00,WeatherDisplay:10.37,2013-06-02 14:30:00,
2013-06-02 10:40:00,81.4,70.3,29.73,SSE,159,13.0,15.0,69,0.00,BKN,,0.00,WeatherDisplay:10.37,2013-06-02 14:40:00,
2013-06-02 10:50:00,82.3,70.6,29.73,South,173,8.0,18.0,68,0.00,BKN,,0.00,WeatherDisplay:10.37,2013-06-02 14:50:00,
2013-06-02 11:00:00,82.7,71.1,29.73,South,173,9.0,16.0,68,0.00,BKN,,0.00,WeatherDisplay:10.37,2013-06-02 15:00:00,
2013-06-02 11:10:00,83.1,71.4,29.73,SSE,157,3.0,14.0,68,0.00,SCT,,0.00,WeatherDisplay:10.37,2013-06-02 15:10:00,
2013-06-02 11:20:00,83.8,71.7,29.72,SSE,157,8.0,12.0,67,0.00,SCT,,0.00,WeatherDisplay:10.37,2013-06-02 15:20:00,
2013-06-02 11:30:00,83.8,71.2,29.72,SSE,162,7.0,14.0,66,0.00,SCT,,0.00,WeatherDisplay:10.37,2013-06-02 15:30:00,
2013-06-02 11:40:00,84.6,72.0,29.73,SSE,167,6.0,14.0,66,0.00,SCT,,0.00,WeatherDisplay:10.37,2013-06-02 15:40:00,
2013-06-02 11:50:00,84.5,71.4,29.72,SSE,154,7.0,15.0,65,0.00,SCT,,0.00,WeatherDisplay:10.37,2013-06-02 15:50:00,
2013-06-02 12:00:00,84.9,71.8,29.72,SSE,152,9.0,14.0,65,0.00,SCT,,0.00,WeatherDisplay:10.37,2013-06-02 16:00:00,
2013-06-02 12:10:00,85.2,72.1,29.70,SSE,162,6.0,14.0,65,0.00,BKN,,0.00,WeatherDisplay:10.37,2013-06-02 16:10:00,
2013-06-02 12:20:00,85.4,71.8,29.70,SSE,149,12.0,15.0,64,0.00,BKN,,0.00,WeatherDisplay:10.37,2013-06-02 16:20:00,
2013-06-02 12:30:00,85.3,71.7,29.70,SSE,159,9.0,14.0,64,0.00,BKN,,0.00,WeatherDisplay:10.37,2013-06-02 16:30:00,
2013-06-02 12:40:00,85.5,71.4,29.69,SSE,158,9.0,15.0,63,0.00,BKN,,0.00,WeatherDisplay:10.37,2013-06-02 16:40:00,
2013-06-02 12:50:00,85.7,71.7,29.68,SSE,161,12.0,15.0,63,0.00,BKN,,0.00,WeatherDisplay:10.37,2013-06-02 16:50:00,
2013-06-02 13:00:00,86.5,72.9,29.68,SSE,165,7.0,14.0,64,0.00,BKN,,0.00,WeatherDisplay:10.37,2013-06-02 17:00:00,
2013-06-02 13:10:00,85.8,71.7,29.67,SSE,150,9.0,15.0,63,0.00,BKN,,0.00,WeatherDisplay:10.37,2013-06-02 17:10:00,
2013-06-02 13:20:00,86.4,71.8,29.67,SSE,148,10.0,14.0,62,0.00,BKN,,0.00,WeatherDisplay:10.37,2013-06-02 17:20:00,
2013-06-02 13:30:00,84.5,71.5,29.66,SSE,158,9.0,21.0,65,0.00,BKN,,0.00,WeatherDisplay:10.37,2013-06-02 17:30:00,
2013-06-02 13:40:00,83.0,71.8,29.68,SSE,167,9.0,16.0,69,0.00,BKN,,0.00,WeatherDisplay:10.37,2013-06-02 17:40:00,
2013-06-02 13:50:00,79.1,70.9,29.67,SSE,159,7.0,21.0,76,0.00,BKN,,0.00,WeatherDisplay:10.37,2013-06-02 17:50:00,
2013-06-02 14:00:00,79.1,72.4,29.67,SSE,151,6.0,14.0,80,0.00,BKN,,0.00,WeatherDisplay:10.37,2013-06-02 18:00:00,
2013-06-02 14:10:00,79.8,72.0,29.68,SSE,152,5.0,9.0,77,0.00,BKN,,0.00,WeatherDisplay:10.37,2013-06-02 18:10:00,
2013-06-02 14:20:00,81.6,72.5,29.67,South,171,1.0,8.0,74,0.00,BKN,,0.00,WeatherDisplay:10.37,2013-06-02 18:20:00,
2013-06-02 14:30:00,81.2,72.1,29.67,SSE,167,1.0,6.0,74,0.00,BKN,,0.00,WeatherDisplay:10.37,2013-06-02 18:30:00,
2013-06-02 14:40:00,80.5,72.2,29.69,SSW,194,0.0,5.0,76,0.00,BKN,,0.00,WeatherDisplay:10.37,2013-06-02 18:40:00,
2013-06-02 14:50:00,80.0,68.9,29.69,West,273,5.0,15.0,69,0.00,BKN,,0.00,WeatherDisplay:10.37,2013-06-02 18:50:00,
2013-06-02 15:00:00,79.2,67.7,29.68,NW,311,10.0,20.0,68,0.00,BKN,,0.00,WeatherDisplay:10.37,2013-06-02 19:00:00,
2013-06-02 15:10:00,79.3,67.8,29.68,NW,311,5.0,14.0,68,0.00,OVC,,0.00,WeatherDisplay:10.37,2013-06-02 19:10:00,
2013-06-02 15:20:00,78.7,66.4,29.70,NW,325,3.0,16.0,66,0.00,OVC,,0.00,WeatherDisplay:10.37,2013-06-02 19:20:00,
2013-06-02 15:30:00,77.8,65.9,29.72,NW,319,2.0,15.0,67,0.00,OVC,,0.00,WeatherDisplay:10.37,2013-06-02 19:30:00,
2013-06-02 15:40:00,76.5,66.4,29.73,NNW,335,8.0,18.0,71,0.00,OVC,,0.00,WeatherDisplay:10.37,2013-06-02 19:40:00,
2013-06-02 15:50:00,75.6,66.7,29.73,NW,317,2.0,12.0,74,0.00,OVC,,0.00,WeatherDisplay:10.37,2013-06-02 19:50:00,
2013-06-02 16:00:00,74.9,67.2,29.73,WNW,299,5.0,8.0,77,0.00,OVC,,0.00,WeatherDisplay:10.37,2013-06-02 20:00:00,
2013-06-02 16:10:00,74.0,67.4,29.72,NNW,339,5.0,10.0,80,0.00,OVC,,0.00,WeatherDisplay:10.37,2013-06-02 20:10:00,
2013-06-02 16:20:00,72.8,68.0,29.72,North,3,0.0,5.0,85,0.01,RA,,0.01,WeatherDisplay:10.37,2013-06-02 20:20:00,
2013-06-02 16:30:00,72.4,68.3,29.72,ENE,75,5.0,8.0,87,0.00,OVC,,0.01,WeatherDisplay:10.37,2013-06-02 20:30:00,
2013-06-02 16:40:00,71.9,68.2,29.72,NE,53,0.0,8.0,88,0.00,OVC,,0.01,WeatherDisplay:10.37,2013-06-02 20:40:00,
2013-06-02 16:50:00,71.6,67.9,29.72,ENE,65,0.0,5.0,88,0.00,OVC,,0.01,WeatherDisplay:10.37,2013-06-02 20:50:00,
2013-06-02 17:00:00,71.7,68.0,29.72,ENE,65,6.0,6.0,88,0.00,OVC,,0.01,WeatherDisplay:10.37,2013-06-02 21:00:00,
2013-06-02 17:10:00,72.4,68.9,29.72,East,82,1.0,5.0,89,0.00,OVC,,0.01,WeatherDisplay:10.37,2013-06-02 21:10:00,
2013-06-02 17:20:00,72.9,69.1,29.72,East,92,1.0,5.0,88,0.00,OVC,,0.01,WeatherDisplay:10.37,2013-06-02 21:20:00,
2013-06-02 17:30:00,73.0,68.6,29.71,East,91,0.0,6.0,86,0.00,OVC,,0.01,WeatherDisplay:10.37,2013-06-02 21:30:00,
2013-06-02 17:40:00,73.6,69.8,29.71,East,84,2.0,5.0,88,0.00,OVC,,0.01,WeatherDisplay:10.37,2013-06-02 21:40:00,
2013-06-02 17:50:00,74.2,69.4,29.71,ENE,73,3.0,5.0,85,0.00,OVC,,0.01,WeatherDisplay:10.37,2013-06-02 21:50:00,
2013-06-02 18:00:00,74.5,69.7,29.71,East,80,0.0,3.0,85,0.00,OVC,,0.01,WeatherDisplay:10.37,2013-06-02 22:00:00,
2013-06-02 18:10:00,74.7,69.9,29.72,East,80,1.0,3.0,85,0.00,BKN,,0.01,WeatherDisplay:10.37,2013-06-02 22:10:00,
2013-06-02 18:20:00,75.1,70.0,29.71,East,98,5.0,6.0,84,0.00,BKN,,0.01,WeatherDisplay:10.37,2013-06-02 22:20:00,
2013-06-02 18:30:00,75.1,69.6,29.71,East,90,3.0,8.0,83,0.00,BKN,,0.01,WeatherDisplay:10.37,2013-06-02 22:30:00,
2013-06-02 18:40:00,75.1,69.6,29.70,East,90,0.0,3.0,83,0.00,BKN,,0.01,WeatherDisplay:10.37,2013-06-02 22:40:00,
2013-06-02 18:50:00,74.8,69.6,29.70,East,90,0.0,5.0,84,0.00,BKN,,0.01,WeatherDisplay:10.37,2013-06-02 22:50:00,
2013-06-02 19:00:00,74.8,70.0,29.70,East,90,0.0,2.0,85,0.00,BKN,,0.01,WeatherDisplay:10.37,2013-06-02 23:00:00,
2013-06-02 19:10:00,75.1,70.2,29.70,East,90,0.0,2.0,85,0.00,BKN,,0.01,WeatherDisplay:10.37,2013-06-02 23:10:00,
2013-06-02 19:20:00,75.2,70.4,29.70,East,96,0.0,3.0,85,0.00,BKN,,0.01,WeatherDisplay:10.37,2013-06-02 23:20:00,
2013-06-02 19:30:00,75.1,70.3,29.70,ESE,107,0.0,3.0,85,0.00,BKN,,0.01,WeatherDisplay:10.37,2013-06-02 23:30:00,
2013-06-02 19:40:00,74.9,70.1,29.71,SE,134,2.0,5.0,85,0.00,BKN,,0.01,WeatherDisplay:10.37,2013-06-02 23:40:00,
2013-06-02 19:50:00,74.7,69.9,29.71,SSE,160,1.0,3.0,85,0.00,BKN,,0.01,WeatherDisplay:10.37,2013-06-02 23:50:00,
2013-06-02 20:00:00,74.4,69.6,29.73,SSW,196,3.0,5.0,85,0.00,BKN,,0.01,WeatherDisplay:10.37,2013-06-03 00:00:00,
2013-06-02 20:10:00,74.2,69.1,29.72,WNW,303,3.0,6.0,84,0.00,BKN,,0.01,WeatherDisplay:10.37,2013-06-03 00:10:00,
2013-06-02 20:20:00,74.0,68.2,29.73,WSW,247,0.0,5.0,82,0.00,BKN,,0.01,WeatherDisplay:10.37,2013-06-03 00:20:00,
2013-06-02 20:30:00,73.9,68.7,29.74,West,264,0.0,2.0,84,0.00,BKN,,0.01,WeatherDisplay:10.37,2013-06-03 00:30:00,
2013-06-02 20:40:00,73.4,68.3,29.74,West,264,0.0,2.0,84,0.00,BKN,,0.01,WeatherDisplay:10.37,2013-06-03 00:40:00,
2013-06-02 20:50:00,72.9,67.0,29.75,West,275,5.0,9.0,82,0.00,BKN,,0.01,WeatherDisplay:10.37,2013-06-03 00:50:00,
2013-06-02 21:00:00,72.4,65.5,29.75,West,273,2.0,10.0,79,0.00,BKN,,0.01,WeatherDisplay:10.37,2013-06-03 01:00:00,
2013-06-02 21:10:00,72.2,65.0,29.74,West,267,0.0,6.0,78,0.00,-RA,,0.01,WeatherDisplay:10.37,2013-06-03 01:10:00,
2013-06-02 21:20:00,72.1,65.9,29.75,West,264,0.0,3.0,81,0.00,-RA,,0.01,WeatherDisplay:10.37,2013-06-03 01:20:00,
2013-06-02 21:30:00,71.9,65.8,29.75,West,264,0.0,3.0,81,0.00,-RA,,0.01,WeatherDisplay:10.37,2013-06-03 01:30:00,
2013-06-02 21:40:00,71.5,65.7,29.75,West,264,2.0,3.0,82,0.00,-RA,,0.01,WeatherDisplay:10.37,2013-06-03 01:40:00,
2013-06-02 21:50:00,71.2,65.8,29.76,West,265,0.0,5.0,83,0.00,-RA,,0.01,WeatherDisplay:10.37,2013-06-03 01:50:00,
2013-06-02 22:00:00,70.8,65.7,29.77,West,266,0.0,3.0,84,0.01,-RA,,0.02,WeatherDisplay:10.37,2013-06-03 02:00:00,
2013-06-02 22:10:00,70.4,66.0,29.77,West,265,0.0,2.0,86,0.02,-RA,,0.04,WeatherDisplay:10.37,2013-06-03 02:10:00,
2013-06-02 22:20:00,70.1,66.0,29.78,SW,228,1.0,3.0,87,0.00,-RA,,0.04,WeatherDisplay:10.37,2013-06-03 02:20:00,
2013-06-02 22:30:00,69.7,66.0,29.78,SW,215,0.0,3.0,88,0.01,-RA,,0.05,WeatherDisplay:10.37,2013-06-03 02:30:00,
2013-06-02 22:40:00,69.4,65.7,29.78,SW,233,0.0,5.0,88,0.00,-RA,,0.05,WeatherDisplay:10.37,2013-06-03 02:40:00,
2013-06-02 22:50:00,69.2,65.5,29.78,SW,234,0.0,0.0,88,0.00,-RA,,0.05,WeatherDisplay:10.37,2013-06-03 02:50:00,
2013-06-02 23:00:00,69.1,65.7,29.78,SW,234,0.0,2.0,89,0.00,-RA,,0.05,WeatherDisplay:10.37,2013-06-03 03:00:00,
2013-06-02 23:10:00,68.8,65.7,29.79,SW,234,0.0,2.0,90,0.00,-RA,,0.05,WeatherDisplay:10.37,2013-06-03 03:10:00,
2013-06-02 23:20:00,68.6,65.5,29.80,SW,234,0.0,2.0,90,0.00,-RA,,0.05,WeatherDisplay:10.37,2013-06-03 03:20:00,
2013-06-02 23:30:00,68.5,65.8,29.79,SW,234,0.0,2.0,91,0.00,-RA,,0.05,WeatherDisplay:10.37,2013-06-03 03:30:00,
2013-06-02 23:40:00,68.4,65.7,29.79,SW,234,0.0,0.0,91,0.00,-RA,,0.05,WeatherDisplay:10.37,2013-06-03 03:40:00,
2013-06-02 23:50:00,68.3,65.6,29.80,SW,234,0.0,2.0,91,0.00,-RA,,0.05,WeatherDisplay:10.37,2013-06-03 03:50:00,